sensor_id;sensor_type;location;lat;lon;timestamp;P1;durP1;ratioP1;P2;durP2;ratioP2
37805;SDS011;25082;50.870;0.022;2023-03-25T00:00:57;12.75;;;3.88;;
37805;SDS011;25082;50.870;0.022;2023-03-25T00:03:27;14.30;;;5.15;;
37805;SDS011;25082;50.870;0.022;2023-03-25T00:05:55;9.43;;;3.60;;
37805;SDS011;25082;50.870;0.022;2023-03-25T00:08:21;16.33;;;4.05;;
37805;SDS011;25082;50.870;0.022;2023-03-25T00:10:52;13.57;;;3.75;;
37805;SDS011;25082;50.870;0.022;2023-03-25T00:13:19;14.63;;;4.28;;
37805;SDS011;25082;50.870;0.022;2023-03-25T00:15:46;16.27;;;3.72;;
37805;SDS011;25082;50.870;0.022;2023-03-25T00:18:13;15.68;;;4.53;;
37805;SDS011;25082;50.870;0.022;2023-03-25T00:20:42;14.38;;;4.57;;
37805;SDS011;25082;50.870;0.022;2023-03-25T00:23:10;14.23;;;4.32;;
37805;SDS011;25082;50.870;0.022;2023-03-25T00:25:37;14.77;;;4.53;;
37805;SDS011;25082;50.870;0.022;2023-03-25T00:28:03;16.40;;;4.60;;
37805;SDS011;25082;50.870;0.022;2023-03-25T00:30:28;13.68;;;4.68;;
37805;SDS011;25082;50.870;0.022;2023-03-25T00:32:54;10.45;;;3.60;;
37805;SDS011;25082;50.870;0.022;2023-03-25T00:35:21;16.98;;;3.95;;
37805;SDS011;25082;50.870;0.022;2023-03-25T00:37:48;11.82;;;3.90;;
37805;SDS011;25082;50.870;0.022;2023-03-25T00:40:24;14.88;;;4.10;;
37805;SDS011;25082;50.870;0.022;2023-03-25T00:42:52;13.95;;;3.63;;
37805;SDS011;25082;50.870;0.022;2023-03-25T00:45:18;12.77;;;4.18;;
37805;SDS011;25082;50.870;0.022;2023-03-25T00:47:44;14.25;;;3.65;;
37805;SDS011;25082;50.870;0.022;2023-03-25T00:50:10;14.18;;;4.30;;
37805;SDS011;25082;50.870;0.022;2023-03-25T00:52:36;15.55;;;4.22;;
37805;SDS011;25082;50.870;0.022;2023-03-25T00:55:02;13.70;;;3.55;;
37805;SDS011;25082;50.870;0.022;2023-03-25T00:57:28;19.80;;;4.13;;
37805;SDS011;25082;50.870;0.022;2023-03-25T00:59:54;14.85;;;4.55;;
37805;SDS011;25082;50.870;0.022;2023-03-25T01:02:21;17.48;;;4.28;;
37805;SDS011;25082;50.870;0.022;2023-03-25T01:04:48;13.32;;;3.58;;
37805;SDS011;25082;50.870;0.022;2023-03-25T01:07:17;14.45;;;4.13;;
37805;SDS011;25082;50.870;0.022;2023-03-25T01:09:44;13.80;;;3.53;;
37805;SDS011;25082;50.870;0.022;2023-03-25T01:12:12;11.65;;;3.22;;
37805;SDS011;25082;50.870;0.022;2023-03-25T01:14:39;11.57;;;4.25;;
37805;SDS011;25082;50.870;0.022;2023-03-25T01:17:06;10.55;;;3.47;;
37805;SDS011;25082;50.870;0.022;2023-03-25T01:19:31;12.45;;;3.55;;
37805;SDS011;25082;50.870;0.022;2023-03-25T01:21:57;15.77;;;3.80;;
37805;SDS011;25082;50.870;0.022;2023-03-25T01:24:23;14.75;;;4.40;;
37805;SDS011;25082;50.870;0.022;2023-03-25T01:26:49;10.50;;;2.72;;
37805;SDS011;25082;50.870;0.022;2023-03-25T01:29:15;12.20;;;3.45;;
37805;SDS011;25082;50.870;0.022;2023-03-25T01:31:43;14.50;;;4.10;;
37805;SDS011;25082;50.870;0.022;2023-03-25T01:34:09;18.60;;;3.92;;
37805;SDS011;25082;50.870;0.022;2023-03-25T01:36:35;15.55;;;4.55;;
37805;SDS011;25082;50.870;0.022;2023-03-25T01:39:04;12.98;;;4.03;;
37805;SDS011;25082;50.870;0.022;2023-03-25T01:41:31;14.63;;;4.00;;
37805;SDS011;25082;50.870;0.022;2023-03-25T01:44:06;11.40;;;3.20;;
37805;SDS011;25082;50.870;0.022;2023-03-25T01:46:53;11.93;;;3.90;;
37805;SDS011;25082;50.870;0.022;2023-03-25T01:49:33;10.98;;;3.50;;
37805;SDS011;25082;50.870;0.022;2023-03-25T01:52:15;11.27;;;3.15;;
37805;SDS011;25082;50.870;0.022;2023-03-25T01:54:45;14.73;;;3.58;;
37805;SDS011;25082;50.870;0.022;2023-03-25T01:57:15;10.05;;;3.00;;
37805;SDS011;25082;50.870;0.022;2023-03-25T01:59:44;11.48;;;3.67;;
37805;SDS011;25082;50.870;0.022;2023-03-25T02:02:11;10.90;;;3.78;;
37805;SDS011;25082;50.870;0.022;2023-03-25T02:07:46;15.43;;;3.70;;
37805;SDS011;25082;50.870;0.022;2023-03-25T02:10:13;8.35;;;2.63;;
37805;SDS011;25082;50.870;0.022;2023-03-25T02:12:40;10.40;;;3.70;;
37805;SDS011;25082;50.870;0.022;2023-03-25T02:15:07;12.65;;;3.45;;
37805;SDS011;25082;50.870;0.022;2023-03-25T02:28:13;10.02;;;3.17;;
37805;SDS011;25082;50.870;0.022;2023-03-25T02:34:06;12.15;;;3.25;;
37805;SDS011;25082;50.870;0.022;2023-03-25T02:42:02;12.38;;;3.92;;
37805;SDS011;25082;50.870;0.022;2023-03-25T02:44:59;13.25;;;3.10;;
37805;SDS011;25082;50.870;0.022;2023-03-25T02:47:33;13.27;;;3.75;;
37805;SDS011;25082;50.870;0.022;2023-03-25T02:50:06;9.63;;;2.80;;
37805;SDS011;25082;50.870;0.022;2023-03-25T02:53:09;11.45;;;3.42;;
37805;SDS011;25082;50.870;0.022;2023-03-25T02:55:39;14.10;;;3.83;;
37805;SDS011;25082;50.870;0.022;2023-03-25T02:58:08;10.95;;;3.13;;
37805;SDS011;25082;50.870;0.022;2023-03-25T03:00:37;15.05;;;3.72;;
37805;SDS011;25082;50.870;0.022;2023-03-25T03:03:04;10.45;;;3.03;;
37805;SDS011;25082;50.870;0.022;2023-03-25T03:05:36;11.10;;;2.65;;
37805;SDS011;25082;50.870;0.022;2023-03-25T03:19:51;11.05;;;3.10;;
37805;SDS011;25082;50.870;0.022;2023-03-25T03:22:48;13.25;;;3.13;;
37805;SDS011;25082;50.870;0.022;2023-03-25T03:26:07;10.35;;;3.13;;
37805;SDS011;25082;50.870;0.022;2023-03-25T03:30:50;13.07;;;2.90;;
37805;SDS011;25082;50.870;0.022;2023-03-25T03:36:01;15.75;;;4.25;;
37805;SDS011;25082;50.870;0.022;2023-03-25T03:38:34;12.68;;;3.25;;
37805;SDS011;25082;50.870;0.022;2023-03-25T03:41:08;8.95;;;2.22;;
37805;SDS011;25082;50.870;0.022;2023-03-25T03:43:40;11.82;;;3.03;;
37805;SDS011;25082;50.870;0.022;2023-03-25T03:46:17;12.30;;;2.78;;
37805;SDS011;25082;50.870;0.022;2023-03-25T03:48:53;10.48;;;2.97;;
37805;SDS011;25082;50.870;0.022;2023-03-25T03:51:26;11.30;;;2.70;;
37805;SDS011;25082;50.870;0.022;2023-03-25T03:56:34;8.70;;;2.53;;
37805;SDS011;25082;50.870;0.022;2023-03-25T03:59:14;9.25;;;2.72;;
37805;SDS011;25082;50.870;0.022;2023-03-25T04:02:01;10.73;;;2.70;;
37805;SDS011;25082;50.870;0.022;2023-03-25T04:04:32;12.32;;;3.00;;
37805;SDS011;25082;50.870;0.022;2023-03-25T04:07:11;12.00;;;3.25;;
37805;SDS011;25082;50.870;0.022;2023-03-25T04:12:29;6.65;;;2.28;;
37805;SDS011;25082;50.870;0.022;2023-03-25T04:15:02;12.30;;;2.50;;
37805;SDS011;25082;50.870;0.022;2023-03-25T04:17:30;11.85;;;3.13;;
37805;SDS011;25082;50.870;0.022;2023-03-25T04:19:57;9.95;;;3.38;;
37805;SDS011;25082;50.870;0.022;2023-03-25T04:22:23;13.10;;;2.95;;
37805;SDS011;25082;50.870;0.022;2023-03-25T04:24:50;9.52;;;2.85;;
37805;SDS011;25082;50.870;0.022;2023-03-25T04:27:18;9.90;;;3.25;;
37805;SDS011;25082;50.870;0.022;2023-03-25T04:29:47;10.35;;;3.30;;
37805;SDS011;25082;50.870;0.022;2023-03-25T04:32:13;10.88;;;3.17;;
37805;SDS011;25082;50.870;0.022;2023-03-25T04:34:40;12.18;;;2.97;;
37805;SDS011;25082;50.870;0.022;2023-03-25T04:37:06;12.05;;;3.97;;
37805;SDS011;25082;50.870;0.022;2023-03-25T04:39:32;9.30;;;2.40;;
37805;SDS011;25082;50.870;0.022;2023-03-25T04:41:58;12.25;;;3.63;;
37805;SDS011;25082;50.870;0.022;2023-03-25T04:44:30;9.60;;;3.30;;
37805;SDS011;25082;50.870;0.022;2023-03-25T04:47:03;12.45;;;3.80;;
37805;SDS011;25082;50.870;0.022;2023-03-25T04:49:31;9.20;;;3.35;;
37805;SDS011;25082;50.870;0.022;2023-03-25T04:51:57;10.32;;;3.03;;
37805;SDS011;25082;50.870;0.022;2023-03-25T04:54:26;10.85;;;3.65;;
37805;SDS011;25082;50.870;0.022;2023-03-25T04:56:52;13.75;;;3.55;;
37805;SDS011;25082;50.870;0.022;2023-03-25T04:59:18;10.10;;;2.78;;
37805;SDS011;25082;50.870;0.022;2023-03-25T05:01:48;9.40;;;3.75;;
37805;SDS011;25082;50.870;0.022;2023-03-25T05:04:15;13.00;;;3.70;;
37805;SDS011;25082;50.870;0.022;2023-03-25T05:06:43;13.15;;;4.13;;
37805;SDS011;25082;50.870;0.022;2023-03-25T05:09:15;11.80;;;2.85;;
37805;SDS011;25082;50.870;0.022;2023-03-25T05:11:46;10.45;;;3.13;;
37805;SDS011;25082;50.870;0.022;2023-03-25T05:14:13;13.98;;;3.55;;
37805;SDS011;25082;50.870;0.022;2023-03-25T05:16:40;14.13;;;3.42;;
37805;SDS011;25082;50.870;0.022;2023-03-25T05:19:06;11.55;;;3.35;;
37805;SDS011;25082;50.870;0.022;2023-03-25T05:21:33;14.88;;;4.10;;
37805;SDS011;25082;50.870;0.022;2023-03-25T05:24:00;11.38;;;4.05;;
37805;SDS011;25082;50.870;0.022;2023-03-25T05:26:26;15.50;;;3.63;;
37805;SDS011;25082;50.870;0.022;2023-03-25T05:29:02;11.63;;;3.30;;
37805;SDS011;25082;50.870;0.022;2023-03-25T05:31:29;11.05;;;3.05;;
37805;SDS011;25082;50.870;0.022;2023-03-25T05:33:55;11.82;;;3.90;;
37805;SDS011;25082;50.870;0.022;2023-03-25T05:36:21;9.60;;;3.10;;
37805;SDS011;25082;50.870;0.022;2023-03-25T05:38:49;9.98;;;3.05;;
37805;SDS011;25082;50.870;0.022;2023-03-25T05:41:18;11.18;;;3.78;;
37805;SDS011;25082;50.870;0.022;2023-03-25T05:43:45;13.38;;;3.70;;
37805;SDS011;25082;50.870;0.022;2023-03-25T05:46:15;14.05;;;3.85;;
37805;SDS011;25082;50.870;0.022;2023-03-25T05:48:42;13.68;;;3.88;;
37805;SDS011;25082;50.870;0.022;2023-03-25T05:51:10;14.48;;;4.13;;
37805;SDS011;25082;50.870;0.022;2023-03-25T05:53:39;14.88;;;3.70;;
37805;SDS011;25082;50.870;0.022;2023-03-25T05:56:07;12.48;;;3.03;;
37805;SDS011;25082;50.870;0.022;2023-03-25T05:58:34;11.73;;;3.53;;
37805;SDS011;25082;50.870;0.022;2023-03-25T06:01:00;14.98;;;3.65;;
37805;SDS011;25082;50.870;0.022;2023-03-25T06:03:29;9.07;;;2.67;;
37805;SDS011;25082;50.870;0.022;2023-03-25T06:05:58;12.07;;;3.22;;
37805;SDS011;25082;50.870;0.022;2023-03-25T06:08:26;16.67;;;4.65;;
37805;SDS011;25082;50.870;0.022;2023-03-25T06:10:57;16.85;;;4.03;;
37805;SDS011;25082;50.870;0.022;2023-03-25T06:13:26;12.95;;;3.80;;
37805;SDS011;25082;50.870;0.022;2023-03-25T06:15:52;14.88;;;4.57;;
37805;SDS011;25082;50.870;0.022;2023-03-25T06:18:23;15.27;;;3.58;;
37805;SDS011;25082;50.870;0.022;2023-03-25T06:20:49;12.95;;;4.10;;
37805;SDS011;25082;50.870;0.022;2023-03-25T06:23:18;13.80;;;3.95;;
37805;SDS011;25082;50.870;0.022;2023-03-25T06:25:46;11.25;;;3.15;;
37805;SDS011;25082;50.870;0.022;2023-03-25T06:28:13;14.35;;;3.60;;
37805;SDS011;25082;50.870;0.022;2023-03-25T06:30:42;12.50;;;4.20;;
37805;SDS011;25082;50.870;0.022;2023-03-25T06:33:11;15.85;;;4.10;;
37805;SDS011;25082;50.870;0.022;2023-03-25T06:35:42;15.65;;;4.50;;
37805;SDS011;25082;50.870;0.022;2023-03-25T06:38:08;12.55;;;3.60;;
37805;SDS011;25082;50.870;0.022;2023-03-25T06:40:35;14.90;;;3.53;;
37805;SDS011;25082;50.870;0.022;2023-03-25T06:43:02;15.00;;;4.28;;
37805;SDS011;25082;50.870;0.022;2023-03-25T06:45:29;10.48;;;2.70;;
37805;SDS011;25082;50.870;0.022;2023-03-25T06:47:54;11.25;;;3.13;;
37805;SDS011;25082;50.870;0.022;2023-03-25T06:50:20;13.02;;;3.67;;
37805;SDS011;25082;50.870;0.022;2023-03-25T06:52:46;12.60;;;3.15;;
37805;SDS011;25082;50.870;0.022;2023-03-25T06:55:12;12.40;;;3.60;;
37805;SDS011;25082;50.870;0.022;2023-03-25T06:57:37;11.82;;;3.17;;
37805;SDS011;25082;50.870;0.022;2023-03-25T07:00:04;12.75;;;3.58;;
37805;SDS011;25082;50.870;0.022;2023-03-25T07:02:30;12.50;;;3.47;;
37805;SDS011;25082;50.870;0.022;2023-03-25T07:04:56;15.75;;;4.03;;
37805;SDS011;25082;50.870;0.022;2023-03-25T07:07:21;10.88;;;3.60;;
37805;SDS011;25082;50.870;0.022;2023-03-25T07:09:50;10.75;;;2.85;;
37805;SDS011;25082;50.870;0.022;2023-03-25T07:12:19;12.13;;;3.58;;
37805;SDS011;25082;50.870;0.022;2023-03-25T07:14:49;11.40;;;3.85;;
37805;SDS011;25082;50.870;0.022;2023-03-25T07:17:16;12.00;;;3.53;;
37805;SDS011;25082;50.870;0.022;2023-03-25T07:19:42;12.98;;;2.90;;
37805;SDS011;25082;50.870;0.022;2023-03-25T07:22:08;11.75;;;3.08;;
37805;SDS011;25082;50.870;0.022;2023-03-25T07:24:33;9.95;;;3.30;;
37805;SDS011;25082;50.870;0.022;2023-03-25T07:26:59;8.93;;;3.03;;
37805;SDS011;25082;50.870;0.022;2023-03-25T07:29:25;12.25;;;3.42;;
37805;SDS011;25082;50.870;0.022;2023-03-25T07:31:51;14.13;;;3.55;;
37805;SDS011;25082;50.870;0.022;2023-03-25T07:34:16;15.05;;;3.20;;
37805;SDS011;25082;50.870;0.022;2023-03-25T07:36:42;12.93;;;3.53;;
37805;SDS011;25082;50.870;0.022;2023-03-25T07:39:08;12.82;;;3.78;;
37805;SDS011;25082;50.870;0.022;2023-03-25T07:41:34;10.90;;;3.08;;
37805;SDS011;25082;50.870;0.022;2023-03-25T07:43:59;14.30;;;3.58;;
37805;SDS011;25082;50.870;0.022;2023-03-25T07:46:25;10.25;;;3.28;;
37805;SDS011;25082;50.870;0.022;2023-03-25T07:48:51;11.82;;;3.65;;
37805;SDS011;25082;50.870;0.022;2023-03-25T07:51:16;14.25;;;4.75;;
37805;SDS011;25082;50.870;0.022;2023-03-25T07:53:42;10.93;;;2.83;;
37805;SDS011;25082;50.870;0.022;2023-03-25T07:56:10;11.93;;;3.38;;
37805;SDS011;25082;50.870;0.022;2023-03-25T07:58:37;12.63;;;3.45;;
37805;SDS011;25082;50.870;0.022;2023-03-25T08:01:02;10.98;;;3.40;;
37805;SDS011;25082;50.870;0.022;2023-03-25T08:03:29;17.38;;;3.83;;
37805;SDS011;25082;50.870;0.022;2023-03-25T08:05:58;7.85;;;2.90;;
37805;SDS011;25082;50.870;0.022;2023-03-25T08:08:27;12.40;;;3.72;;
37805;SDS011;25082;50.870;0.022;2023-03-25T08:10:56;11.43;;;3.05;;
37805;SDS011;25082;50.870;0.022;2023-03-25T08:13:22;12.52;;;3.05;;
37805;SDS011;25082;50.870;0.022;2023-03-25T08:15:48;11.38;;;3.40;;
37805;SDS011;25082;50.870;0.022;2023-03-25T08:18:14;14.02;;;2.90;;
37805;SDS011;25082;50.870;0.022;2023-03-25T08:20:40;12.73;;;3.22;;
37805;SDS011;25082;50.870;0.022;2023-03-25T08:23:06;10.77;;;3.00;;
37805;SDS011;25082;50.870;0.022;2023-03-25T08:25:38;13.43;;;3.30;;
37805;SDS011;25082;50.870;0.022;2023-03-25T08:28:05;9.93;;;3.40;;
37805;SDS011;25082;50.870;0.022;2023-03-25T08:30:32;10.00;;;3.42;;
37805;SDS011;25082;50.870;0.022;2023-03-25T08:33:06;10.63;;;3.33;;
37805;SDS011;25082;50.870;0.022;2023-03-25T08:35:34;12.02;;;3.65;;
37805;SDS011;25082;50.870;0.022;2023-03-25T08:38:02;12.82;;;3.78;;
37805;SDS011;25082;50.870;0.022;2023-03-25T08:40:32;12.30;;;3.97;;
37805;SDS011;25082;50.870;0.022;2023-03-25T08:42:59;10.88;;;3.60;;
37805;SDS011;25082;50.870;0.022;2023-03-25T08:45:25;13.15;;;3.10;;
37805;SDS011;25082;50.870;0.022;2023-03-25T08:47:51;10.23;;;3.78;;
37805;SDS011;25082;50.870;0.022;2023-03-25T08:50:16;10.65;;;3.20;;
37805;SDS011;25082;50.870;0.022;2023-03-25T08:52:42;10.25;;;3.15;;
37805;SDS011;25082;50.870;0.022;2023-03-25T08:55:08;7.80;;;3.28;;
37805;SDS011;25082;50.870;0.022;2023-03-25T08:57:35;17.25;;;4.00;;
37805;SDS011;25082;50.870;0.022;2023-03-25T09:00:02;10.63;;;2.92;;
37805;SDS011;25082;50.870;0.022;2023-03-25T09:02:38;12.30;;;3.40;;
37805;SDS011;25082;50.870;0.022;2023-03-25T09:05:06;9.57;;;3.40;;
37805;SDS011;25082;50.870;0.022;2023-03-25T09:07:34;10.32;;;3.47;;
37805;SDS011;25082;50.870;0.022;2023-03-25T09:10:01;13.40;;;4.07;;
37805;SDS011;25082;50.870;0.022;2023-03-25T09:12:28;10.82;;;3.45;;
37805;SDS011;25082;50.870;0.022;2023-03-25T09:14:54;12.13;;;3.25;;
37805;SDS011;25082;50.870;0.022;2023-03-25T09:17:20;9.13;;;3.17;;
37805;SDS011;25082;50.870;0.022;2023-03-25T09:19:46;8.60;;;2.50;;
37805;SDS011;25082;50.870;0.022;2023-03-25T09:22:12;17.90;;;3.60;;
37805;SDS011;25082;50.870;0.022;2023-03-25T09:24:38;15.18;;;3.63;;
37805;SDS011;25082;50.870;0.022;2023-03-25T09:27:04;12.40;;;3.30;;
37805;SDS011;25082;50.870;0.022;2023-03-25T09:29:30;12.82;;;3.33;;
37805;SDS011;25082;50.870;0.022;2023-03-25T09:31:56;11.57;;;3.17;;
37805;SDS011;25082;50.870;0.022;2023-03-25T09:34:23;7.90;;;2.30;;
37805;SDS011;25082;50.870;0.022;2023-03-25T09:36:49;9.77;;;3.05;;
37805;SDS011;25082;50.870;0.022;2023-03-25T09:39:15;13.38;;;3.00;;
37805;SDS011;25082;50.870;0.022;2023-03-25T09:44:33;9.73;;;2.70;;
37805;SDS011;25082;50.870;0.022;2023-03-25T09:47:03;12.57;;;2.67;;
37805;SDS011;25082;50.870;0.022;2023-03-25T09:49:38;14.02;;;2.92;;
37805;SDS011;25082;50.870;0.022;2023-03-25T09:52:14;12.05;;;2.65;;
37805;SDS011;25082;50.870;0.022;2023-03-25T09:54:51;10.27;;;2.78;;
37805;SDS011;25082;50.870;0.022;2023-03-25T09:57:26;13.77;;;3.80;;
37805;SDS011;25082;50.870;0.022;2023-03-25T09:59:55;13.55;;;3.17;;
37805;SDS011;25082;50.870;0.022;2023-03-25T10:26:23;15.07;;;3.45;;
37805;SDS011;25082;50.870;0.022;2023-03-25T10:28:57;10.88;;;3.60;;
37805;SDS011;25082;50.870;0.022;2023-03-25T10:31:28;12.13;;;2.65;;
37805;SDS011;25082;50.870;0.022;2023-03-25T10:33:59;12.25;;;3.10;;
37805;SDS011;25082;50.870;0.022;2023-03-25T10:36:31;9.23;;;2.85;;
37805;SDS011;25082;50.870;0.022;2023-03-25T10:38:59;11.73;;;3.05;;
37805;SDS011;25082;50.870;0.022;2023-03-25T10:43:56;12.25;;;2.90;;
37805;SDS011;25082;50.870;0.022;2023-03-25T10:49:01;14.18;;;3.28;;
37805;SDS011;25082;50.870;0.022;2023-03-25T10:51:31;10.40;;;2.95;;
37805;SDS011;25082;50.870;0.022;2023-03-25T10:53:59;14.82;;;2.90;;
37805;SDS011;25082;50.870;0.022;2023-03-25T10:58:55;10.23;;;2.55;;
37805;SDS011;25082;50.870;0.022;2023-03-25T11:01:40;9.85;;;2.47;;
37805;SDS011;25082;50.870;0.022;2023-03-25T11:04:09;10.05;;;3.17;;
37805;SDS011;25082;50.870;0.022;2023-03-25T11:06:39;8.75;;;2.53;;
37805;SDS011;25082;50.870;0.022;2023-03-25T11:11:42;12.95;;;2.88;;
37805;SDS011;25082;50.870;0.022;2023-03-25T11:14:11;10.10;;;2.20;;
37805;SDS011;25082;50.870;0.022;2023-03-25T11:16:45;10.82;;;2.75;;
37805;SDS011;25082;50.870;0.022;2023-03-25T11:19:17;6.38;;;2.22;;
37805;SDS011;25082;50.870;0.022;2023-03-25T11:21:51;10.25;;;3.20;;
37805;SDS011;25082;50.870;0.022;2023-03-25T11:24:19;5.97;;;2.55;;
37805;SDS011;25082;50.870;0.022;2023-03-25T11:26:47;10.95;;;2.97;;
37805;SDS011;25082;50.870;0.022;2023-03-25T11:29:19;9.98;;;2.65;;
37805;SDS011;25082;50.870;0.022;2023-03-25T11:32:22;8.95;;;2.67;;
37805;SDS011;25082;50.870;0.022;2023-03-25T11:34:40;8.20;;;2.95;;
37805;SDS011;25082;50.870;0.022;2023-03-25T11:39:52;13.38;;;3.17;;
37805;SDS011;25082;50.870;0.022;2023-03-25T11:42:37;9.35;;;3.00;;
37805;SDS011;25082;50.870;0.022;2023-03-25T11:45:30;10.52;;;2.80;;
37805;SDS011;25082;50.870;0.022;2023-03-25T11:48:09;8.55;;;2.45;;
37805;SDS011;25082;50.870;0.022;2023-03-25T11:50:43;11.90;;;2.60;;
37805;SDS011;25082;50.870;0.022;2023-03-25T11:53:16;6.57;;;2.40;;
37805;SDS011;25082;50.870;0.022;2023-03-25T11:55:44;10.55;;;2.80;;
37805;SDS011;25082;50.870;0.022;2023-03-25T11:58:15;11.32;;;2.63;;
37805;SDS011;25082;50.870;0.022;2023-03-25T12:00:47;12.43;;;3.45;;
37805;SDS011;25082;50.870;0.022;2023-03-25T12:08:23;9.70;;;3.33;;
37805;SDS011;25082;50.870;0.022;2023-03-25T12:10:59;8.77;;;2.95;;
37805;SDS011;25082;50.870;0.022;2023-03-25T12:16:26;10.25;;;3.20;;
37805;SDS011;25082;50.870;0.022;2023-03-25T12:25:16;10.40;;;2.92;;
37805;SDS011;25082;50.870;0.022;2023-03-25T12:28:51;9.38;;;2.97;;
37805;SDS011;25082;50.870;0.022;2023-03-25T12:42:21;10.88;;;2.95;;
37805;SDS011;25082;50.870;0.022;2023-03-25T12:45:15;7.22;;;2.45;;
37805;SDS011;25082;50.870;0.022;2023-03-25T12:53:39;12.27;;;2.75;;
37805;SDS011;25082;50.870;0.022;2023-03-25T12:56:13;23.58;;;3.30;;
37805;SDS011;25082;50.870;0.022;2023-03-25T13:01:32;14.95;;;3.05;;
37805;SDS011;25082;50.870;0.022;2023-03-25T13:07:06;18.52;;;3.63;;
37805;SDS011;25082;50.870;0.022;2023-03-25T13:17:53;13.73;;;3.13;;
37805;SDS011;25082;50.870;0.022;2023-03-25T13:20:28;12.15;;;2.70;;
37805;SDS011;25082;50.870;0.022;2023-03-25T13:23:00;10.80;;;3.22;;
37805;SDS011;25082;50.870;0.022;2023-03-25T13:25:30;10.45;;;3.13;;
37805;SDS011;25082;50.870;0.022;2023-03-25T13:27:59;12.52;;;3.00;;
37805;SDS011;25082;50.870;0.022;2023-03-25T13:30:30;12.55;;;3.17;;
37805;SDS011;25082;50.870;0.022;2023-03-25T13:33:07;22.67;;;3.80;;
37805;SDS011;25082;50.870;0.022;2023-03-25T13:35:49;26.27;;;3.72;;
37805;SDS011;25082;50.870;0.022;2023-03-25T13:38:33;13.18;;;3.15;;
37805;SDS011;25082;50.870;0.022;2023-03-25T13:46:33;10.35;;;3.10;;
37805;SDS011;25082;50.870;0.022;2023-03-25T13:49:05;13.55;;;3.20;;
37805;SDS011;25082;50.870;0.022;2023-03-25T13:51:50;12.57;;;3.40;;
37805;SDS011;25082;50.870;0.022;2023-03-25T13:54:18;13.52;;;3.45;;
37805;SDS011;25082;50.870;0.022;2023-03-25T14:05:52;17.10;;;3.67;;
37805;SDS011;25082;50.870;0.022;2023-03-25T14:13:59;8.50;;;2.70;;
37805;SDS011;25082;50.870;0.022;2023-03-25T14:16:34;9.10;;;2.72;;
37805;SDS011;25082;50.870;0.022;2023-03-25T14:19:09;17.83;;;2.80;;
37805;SDS011;25082;50.870;0.022;2023-03-25T14:24:10;11.80;;;3.42;;
37805;SDS011;25082;50.870;0.022;2023-03-25T14:27:04;8.80;;;2.38;;
37805;SDS011;25082;50.870;0.022;2023-03-25T14:29:45;10.18;;;2.63;;
37805;SDS011;25082;50.870;0.022;2023-03-25T14:34:46;16.52;;;3.92;;
37805;SDS011;25082;50.870;0.022;2023-03-25T14:39:53;11.00;;;3.67;;
37805;SDS011;25082;50.870;0.022;2023-03-25T14:44:53;11.02;;;2.70;;
37805;SDS011;25082;50.870;0.022;2023-03-25T14:47:57;14.00;;;3.55;;
37805;SDS011;25082;50.870;0.022;2023-03-25T14:55:26;12.02;;;3.40;;
37805;SDS011;25082;50.870;0.022;2023-03-25T14:58:12;13.90;;;3.42;;
37805;SDS011;25082;50.870;0.022;2023-03-25T15:00:44;20.20;;;4.68;;
37805;SDS011;25082;50.870;0.022;2023-03-25T15:03:26;11.30;;;3.70;;
37805;SDS011;25082;50.870;0.022;2023-03-25T15:06:13;14.70;;;3.95;;
37805;SDS011;25082;50.870;0.022;2023-03-25T15:08:43;14.38;;;4.75;;
37805;SDS011;25082;50.870;0.022;2023-03-25T15:11:24;10.15;;;3.78;;
37805;SDS011;25082;50.870;0.022;2023-03-25T15:13:53;12.82;;;4.25;;
37805;SDS011;25082;50.870;0.022;2023-03-25T15:24:34;12.13;;;4.28;;
37805;SDS011;25082;50.870;0.022;2023-03-25T15:27:11;15.05;;;4.53;;
37805;SDS011;25082;50.870;0.022;2023-03-25T15:34:02;13.88;;;4.68;;
37805;SDS011;25082;50.870;0.022;2023-03-25T15:55:21;18.52;;;5.35;;
37805;SDS011;25082;50.870;0.022;2023-03-25T15:57:53;19.70;;;6.07;;
37805;SDS011;25082;50.870;0.022;2023-03-25T16:00:26;17.83;;;4.97;;
37805;SDS011;25082;50.870;0.022;2023-03-25T16:03:13;18.65;;;5.80;;
37805;SDS011;25082;50.870;0.022;2023-03-25T16:05:56;16.98;;;5.40;;
37805;SDS011;25082;50.870;0.022;2023-03-25T16:08:28;20.33;;;6.18;;
37805;SDS011;25082;50.870;0.022;2023-03-25T16:13:43;18.08;;;5.80;;
37805;SDS011;25082;50.870;0.022;2023-03-25T16:16:09;24.70;;;5.97;;
37805;SDS011;25082;50.870;0.022;2023-03-25T16:18:40;27.77;;;6.63;;
37805;SDS011;25082;50.870;0.022;2023-03-25T16:21:09;18.50;;;5.00;;
37805;SDS011;25082;50.870;0.022;2023-03-25T16:23:35;18.60;;;5.80;;
37805;SDS011;25082;50.870;0.022;2023-03-25T16:26:02;13.73;;;4.53;;
37805;SDS011;25082;50.870;0.022;2023-03-25T16:28:39;20.63;;;5.68;;
37805;SDS011;25082;50.870;0.022;2023-03-25T16:31:26;19.33;;;4.80;;
37805;SDS011;25082;50.870;0.022;2023-03-25T16:33:59;17.67;;;5.30;;
37805;SDS011;25082;50.870;0.022;2023-03-25T16:36:25;16.17;;;4.57;;
37805;SDS011;25082;50.870;0.022;2023-03-25T16:38:51;16.23;;;5.50;;
37805;SDS011;25082;50.870;0.022;2023-03-25T16:41:17;21.23;;;5.60;;
37805;SDS011;25082;50.870;0.022;2023-03-25T16:43:43;19.70;;;6.03;;
37805;SDS011;25082;50.870;0.022;2023-03-25T16:46:09;18.77;;;5.82;;
37805;SDS011;25082;50.870;0.022;2023-03-25T16:48:39;16.05;;;4.78;;
37805;SDS011;25082;50.870;0.022;2023-03-25T16:51:11;17.25;;;5.00;;
37805;SDS011;25082;50.870;0.022;2023-03-25T16:53:40;19.27;;;6.40;;
37805;SDS011;25082;50.870;0.022;2023-03-25T16:58:33;20.70;;;6.93;;
37805;SDS011;25082;50.870;0.022;2023-03-25T17:01:02;24.30;;;5.60;;
37805;SDS011;25082;50.870;0.022;2023-03-25T17:03:40;26.58;;;6.80;;
37805;SDS011;25082;50.870;0.022;2023-03-25T17:08:35;16.98;;;5.18;;
37805;SDS011;25082;50.870;0.022;2023-03-25T17:11:01;24.45;;;5.35;;
37805;SDS011;25082;50.870;0.022;2023-03-25T17:13:29;14.40;;;4.85;;
37805;SDS011;25082;50.870;0.022;2023-03-25T17:16:06;18.10;;;6.35;;
37805;SDS011;25082;50.870;0.022;2023-03-25T17:18:32;18.10;;;6.03;;
37805;SDS011;25082;50.870;0.022;2023-03-25T17:21:00;22.67;;;6.10;;
37805;SDS011;25082;50.870;0.022;2023-03-25T17:26:11;18.15;;;5.55;;
37805;SDS011;25082;50.870;0.022;2023-03-25T17:34:06;17.70;;;5.50;;
37805;SDS011;25082;50.870;0.022;2023-03-25T17:36:33;16.33;;;5.53;;
37805;SDS011;25082;50.870;0.022;2023-03-25T17:39:00;15.45;;;4.93;;
37805;SDS011;25082;50.870;0.022;2023-03-25T17:41:29;15.90;;;5.53;;
37805;SDS011;25082;50.870;0.022;2023-03-25T17:44:00;16.85;;;5.25;;
37805;SDS011;25082;50.870;0.022;2023-03-25T17:46:27;13.63;;;4.68;;
37805;SDS011;25082;50.870;0.022;2023-03-25T17:48:54;13.02;;;5.05;;
37805;SDS011;25082;50.870;0.022;2023-03-25T17:51:22;11.60;;;4.47;;
37805;SDS011;25082;50.870;0.022;2023-03-25T17:53:49;14.77;;;4.95;;
37805;SDS011;25082;50.870;0.022;2023-03-25T17:56:20;15.23;;;4.70;;
37805;SDS011;25082;50.870;0.022;2023-03-25T17:58:54;13.75;;;4.85;;
37805;SDS011;25082;50.870;0.022;2023-03-25T18:01:25;12.88;;;4.30;;
37805;SDS011;25082;50.870;0.022;2023-03-25T18:03:52;12.10;;;4.15;;
37805;SDS011;25082;50.870;0.022;2023-03-25T18:06:18;11.57;;;4.07;;
37805;SDS011;25082;50.870;0.022;2023-03-25T18:08:44;16.55;;;4.22;;
37805;SDS011;25082;50.870;0.022;2023-03-25T18:11:10;14.75;;;4.28;;
37805;SDS011;25082;50.870;0.022;2023-03-25T18:13:36;21.05;;;4.38;;
37805;SDS011;25082;50.870;0.022;2023-03-25T18:16:03;13.30;;;4.18;;
37805;SDS011;25082;50.870;0.022;2023-03-25T18:18:29;13.00;;;4.00;;
37805;SDS011;25082;50.870;0.022;2023-03-25T18:20:56;10.77;;;3.95;;
37805;SDS011;25082;50.870;0.022;2023-03-25T18:23:27;11.70;;;3.83;;
37805;SDS011;25082;50.870;0.022;2023-03-25T18:25:53;16.10;;;5.20;;